DAAG

Houari Boumediene Airport

Algiers, Algeria
METAR DAAG 201030Z 26007KT 220V300 6000 -RA FEW020 FEW030CB SCT046 BKN100 13/11 Q1010
Observed Flight Rules
Jan-20 @ 10:30 UTC (40 minutes ago) Marginal Visual Flight Rules
Wind Visibility Clouds Conditions
260° at 7 knots 6,003 meters
  • Few at 2,000' AGL
  • Few at 3,000' AGL
  • Scattered at 4,600' AGL
  • Broken at 10,000' AGL
  • Light Rain
Temperatures Readings
Current 13°C / 55°F
Dewpoint 11°C / 52°F
Humidity 88%
Altimeter 29.82" Hg
Pressure 1009.92 hPa
Elevation 25
METAR DAAG 201030Z 26007KT 220V300 6000 -RA FEW020 FEW030CB SCT046 BKN100 13/11 Q1010
Observed Flight Rules
Jan-20 @ 10:30 UTC
(40 minutes ago)
MVFR
Wind Visibility
260° at 7 knots 6,003 meters
Clouds
  • Few at 2,000' AGL
  • Few at 3,000' AGL
  • Scattered at 4,600' AGL
  • Broken at 10,000' AGL
Conditions
  • Light Rain
Temperature Dewpoint
13°C / 55°F 11°C / 52°F
Humidity Altimeter Pressure
88% 29.82" Hg 1009.92 hPa